Time;durP1;ratioP1;P1;durP2;ratioP2;P2;SDS_P1;SDS_P2;PMS_P1;PMS_P2;Temp;Humidity;BMP_temperature;BMP_pressure;BME280_temperature;BME280_humidity;BME280_pressure;Samples;Min_cycle;Max_cycle;Signal;HPM_P1;HPM_P2
2022/03/12 00:01:42;;;;;;;21.75;12.75;;;;;;;8.95;39.63;101107.94;4986549;28;20396;-86
2022/03/12 00:04:07;;;;;;;17.98;11.70;;;;;;;8.93;40.00;101107.97;4985314;28;20468;-86
2022/03/12 00:06:33;;;;;;;18.27;12.77;;;;;;;8.92;40.02;101105.38;4982010;28;20424;-86
2022/03/12 00:08:59;;;;;;;21.00;11.90;;;;;;;8.96;39.85;101115.81;4970887;28;20023;-85
2022/03/12 00:11:34;;;;;;;22.75;12.63;;;;;;;8.99;39.73;101120.16;4975840;28;20027;-86
2022/03/12 00:14:02;;;;;;;19.27;12.02;;;;;;;8.93;39.83;101101.78;4984400;28;20042;-85
2022/03/12 00:16:28;;;;;;;18.55;11.95;;;;;;;9.00;39.76;101111.25;4981937;28;20084;-86
2022/03/12 00:19:02;;;;;;;18.95;12.70;;;;;;;9.00;39.72;101110.41;4984438;28;20035;-85
2022/03/12 00:21:30;;;;;;;20.17;12.18;;;;;;;8.96;40.21;101114.97;4981902;28;20039;-86
2022/03/12 00:23:58;;;;;;;20.60;12.60;;;;;;;8.92;39.83;101114.22;4980918;28;20427;-86
2022/03/12 00:26:24;;;;;;;19.23;11.70;;;;;;;8.98;40.13;101121.06;4971141;28;20031;-86
2022/03/12 00:28:52;;;;;;;20.63;12.30;;;;;;;9.00;40.30;101129.84;4982132;28;20031;-86
2022/03/12 00:31:17;;;;;;;22.20;12.68;;;;;;;8.94;40.59;101119.44;4969680;28;20207;-86
2022/03/12 00:33:42;;;;;;;20.98;11.80;;;;;;;8.99;40.81;101133.44;4980354;28;20133;-85
2022/03/12 00:36:09;;;;;;;19.42;12.90;;;;;;;8.97;41.08;101127.28;4983377;28;20304;-86
2022/03/12 00:38:34;;;;;;;21.88;13.05;;;;;;;8.92;41.35;101122.16;4977300;28;20026;-85
2022/03/12 00:41:04;;;;;;;19.73;12.40;;;;;;;8.91;41.45;101128.41;4988229;28;20061;-85
2022/03/12 00:43:30;;;;;;;18.80;12.57;;;;;;;8.97;42.15;101140.56;4986762;28;20022;-85
2022/03/12 00:45:55;;;;;;;21.95;12.70;;;;;;;8.97;42.32;101144.09;4975014;28;20041;-86
2022/03/12 00:48:20;;;;;;;18.58;12.30;;;;;;;8.85;43.23;101123.34;4984354;28;20058;-86
2022/03/12 00:50:46;;;;;;;19.50;12.93;;;;;;;8.84;43.55;101126.06;4976079;28;20089;-88
2022/03/12 00:53:11;;;;;;;19.30;13.25;;;;;;;8.86;43.38;101132.16;4977933;28;20049;-87
2022/03/12 00:55:36;;;;;;;20.33;12.48;;;;;;;8.88;43.39;101131.19;4985313;28;20065;-86
2022/03/12 00:58:02;;;;;;;19.98;12.52;;;;;;;8.87;43.54;101131.25;4969494;28;20031;-86
2022/03/12 01:00:27;;;;;;;20.45;12.65;;;;;;;8.78;43.85;101120.97;4979396;28;20034;-86
2022/03/12 01:02:53;;;;;;;19.33;13.20;;;;;;;8.79;43.68;101123.59;4969364;28;20018;-86
2022/03/12 01:05:22;;;;;;;20.70;13.05;;;;;;;8.86;43.73;101134.81;4978948;28;20045;-85
2022/03/12 01:07:48;;;;;;;26.48;13.10;;;;;;;8.86;43.49;101133.03;4987316;28;20030;-84
2022/03/12 01:10:14;;;;;;;21.25;13.00;;;;;;;8.89;43.92;101138.22;4988290;28;20267;-86
2022/03/12 01:12:39;;;;;;;18.67;12.10;;;;;;;8.88;44.03;101135.63;4989291;28;20121;-86
2022/03/12 01:15:06;;;;;;;20.85;12.68;;;;;;;8.87;43.68;101134.78;4986292;28;20491;-85
2022/03/12 01:17:33;;;;;;;20.35;12.98;;;;;;;8.90;44.06;101141.72;4986524;28;20043;-85
2022/03/12 01:20:00;;;;;;;17.85;12.60;;;;;;;8.86;44.58;101142.78;4988072;28;20122;-86
2022/03/12 01:22:26;;;;;;;22.73;13.05;;;;;;;8.88;44.74;101140.94;4981923;28;20124;-86
2022/03/12 01:24:52;;;;;;;17.90;12.10;;;;;;;8.81;45.20;101137.66;4987264;28;20046;-85
2022/03/12 01:27:17;;;;;;;19.42;13.43;;;;;;;8.86;46.03;101142.78;4974090;28;20492;-86
2022/03/12 01:29:43;;;;;;;21.50;13.35;;;;;;;8.86;46.03;101148.06;4970210;28;20051;-86
2022/03/12 01:32:09;;;;;;;24.95;13.57;;;;;;;8.83;46.91;101154.41;4988112;28;20057;-86
2022/03/12 01:34:34;;;;;;;20.20;13.65;;;;;;;8.79;47.22;101158.09;4988102;28;20380;-85
2022/03/12 01:37:00;;;;;;;17.92;13.23;;;;;;;8.72;47.05;101152.13;4971309;28;20033;-86
2022/03/12 01:39:25;;;;;;;23.80;13.95;;;;;;;8.76;47.85;101165.28;4969550;28;20113;-86
2022/03/12 01:41:53;;;;;;;20.38;12.93;;;;;;;8.75;48.24;101164.44;4969871;28;20046;-86
2022/03/12 01:44:18;;;;;;;23.00;12.95;;;;;;;8.63;49.26;101152.50;4988848;28;20080;-86
2022/03/12 01:46:46;;;;;;;19.42;13.52;;;;;;;8.66;49.44;101159.47;4971861;28;20027;-86
2022/03/12 01:49:22;;;;;;;22.52;13.43;;;;;;;8.64;48.98;101156.00;4977836;28;20030;-86
2022/03/12 01:51:50;;;;;;;22.65;14.20;;;;;;;8.63;49.20;101152.50;4969044;28;20106;-86
2022/03/12 01:54:25;;;;;;;22.60;13.98;;;;;;;8.57;49.38;101151.84;4969263;28;20039;-86
2022/03/12 01:56:54;;;;;;;23.77;13.63;;;;;;;8.62;49.60;101158.72;4971121;28;20058;-86
2022/03/12 01:59:20;;;;;;;20.67;13.95;;;;;;;8.54;49.68;101152.84;4982352;28;20054;-86
2022/03/12 02:01:51;;;;;;;20.13;13.00;;;;;;;8.52;49.72;101143.19;4988192;28;20026;-86
2022/03/12 02:04:18;;;;;;;23.30;14.00;;;;;;;8.59;49.74;101152.66;4979654;28;20487;-86
2022/03/12 02:06:46;;;;;;;20.25;12.82;;;;;;;8.54;49.79;101149.34;4988154;28;20035;-86
2022/03/12 02:09:16;;;;;;;18.13;12.45;;;;;;;8.58;49.19;101156.25;4973461;28;20544;-87
2022/03/12 02:11:45;;;;;;;21.83;12.90;;;;;;;8.59;49.07;101156.19;4967944;28;20027;-86
2022/03/12 02:14:13;;;;;;;20.98;12.95;;;;;;;8.59;49.05;101164.16;4976204;28;20057;-86
2022/03/12 02:16:56;;;;;;;19.95;12.57;;;;;;;8.49;49.31;101144.19;4984791;28;20098;-86
2022/03/12 02:19:27;;;;;;;24.57;14.23;;;;;;;8.43;50.33;101149.72;4974991;28;20414;-86
2022/03/12 02:21:53;;;;;;;24.00;13.93;;;;;;;8.37;50.61;101144.66;4980922;28;20034;-86
2022/03/12 02:24:20;;;;;;;18.83;12.45;;;;;;;8.36;50.84;101156.13;4987171;28;20172;-86
2022/03/12 02:26:47;;;;;;;24.20;13.98;;;;;;;8.33;50.70;101156.25;4980172;28;20026;-86
2022/03/12 02:29:20;;;;;;;21.98;13.70;;;;;;;8.38;50.42;101162.28;4978378;28;20117;-86
2022/03/12 02:31:48;;;;;;;19.85;13.13;;;;;;;8.39;49.74;101156.06;4985707;28;20033;-86
2022/03/12 02:34:19;;;;;;;21.80;13.80;;;;;;;8.41;49.96;101163.03;4979620;28;20018;-86
2022/03/12 02:36:44;;;;;;;23.05;13.82;;;;;;;8.44;49.44;101164.69;4983804;28;20030;-85
2022/03/12 02:39:11;;;;;;;19.73;13.07;;;;;;;8.36;49.83;101149.06;4969031;28;20075;-86
2022/03/12 02:41:36;;;;;;;21.17;13.25;;;;;;;8.39;49.58;101159.56;4969450;28;20039;-86
2022/03/12 02:44:01;;;;;;;21.38;13.43;;;;;;;8.36;49.71;101153.47;4968930;28;20114;-86
2022/03/12 02:46:31;;;;;;;21.65;13.63;;;;;;;8.39;49.57;101167.53;4976282;28;20466;-86
2022/03/12 02:48:57;;;;;;;24.58;14.27;;;;;;;8.36;49.57;101170.28;4980637;28;20034;-85
2022/03/12 02:51:22;;;;;;;23.02;13.35;;;;;;;8.38;49.25;101178.19;4985658;28;20041;-86
2022/03/12 02:53:56;;;;;;;22.25;13.73;;;;;;;8.39;49.90;101174.63;4986727;28;20018;-86
2022/03/12 02:56:24;;;;;;;21.98;14.38;;;;;;;8.38;49.64;101186.16;4991441;28;20054;-86
2022/03/12 02:58:50;;;;;;;21.02;13.75;;;;;;;8.34;50.17;101182.72;4984056;28;20034;-87
2022/03/12 03:01:16;;;;;;;22.02;13.43;;;;;;;8.32;49.98;101184.56;4991562;28;20493;-86
2022/03/12 03:03:43;;;;;;;20.30;12.30;;;;;;;8.24;50.52;101176.03;4991920;28;20062;-87
2022/03/12 03:06:09;;;;;;;20.65;13.35;;;;;;;8.26;50.39;101190.09;4983020;28;20399;-86
2022/03/12 03:08:37;;;;;;;22.58;13.25;;;;;;;8.24;50.43;101187.50;4977701;28;20025;-86
2022/03/12 03:11:10;;;;;;;20.85;13.18;;;;;;;8.19;50.67;101186.81;4991299;28;20097;-86
2022/03/12 03:13:37;;;;;;;23.08;13.60;;;;;;;8.13;51.18;101188.78;4985727;28;20051;-86
2022/03/12 03:16:09;;;;;;;21.63;13.00;;;;;;;7.95;51.28;101180.56;4974583;28;20039;-87
2022/03/12 03:18:40;;;;;;;21.20;13.00;;;;;;;7.88;52.17;101189.63;4978214;28;20046;-86
2022/03/12 03:21:12;;;;;;;18.80;12.55;;;;;;;7.79;52.48;101184.66;4992176;28;20423;-86
2022/03/12 03:23:38;;;;;;;18.23;12.48;;;;;;;7.66;53.73;101183.34;4976907;28;20509;-87
2022/03/12 03:26:05;;;;;;;21.83;12.57;;;;;;;7.61;54.73;101193.22;4974438;28;20073;-86
2022/03/12 03:28:30;;;;;;;19.30;13.25;;;;;;;7.54;55.41;101194.34;4989326;28;20026;-87
2022/03/12 03:30:56;;;;;;;20.38;13.02;;;;;;;7.39;56.00;101188.59;4990363;28;20042;-87
2022/03/12 03:33:23;;;;;;;18.63;12.40;;;;;;;7.34;56.18;101187.03;4990907;28;20069;-85
2022/03/12 03:35:49;;;;;;;20.17;12.65;;;;;;;7.34;56.80;101201.13;4980748;28;20031;-85
2022/03/12 03:38:15;;;;;;;19.15;13.07;;;;;;;7.29;57.17;101204.84;4986541;28;20026;-85
2022/03/12 03:40:42;;;;;;;18.55;12.40;;;;;;;7.21;57.45;101208.59;4990925;28;20023;-85
2022/03/12 03:43:13;;;;;;;21.80;12.50;;;;;;;7.14;57.62;101214.97;4989796;28;20097;-86
2022/03/12 03:45:39;;;;;;;19.35;13.20;;;;;;;7.13;57.41;101207.09;4977967;28;20055;-85
2022/03/12 03:48:07;;;;;;;19.77;12.80;;;;;;;7.11;57.55;101209.81;4990704;28;20018;-86
2022/03/12 03:50:32;;;;;;;19.15;12.90;;;;;;;7.02;57.54;101201.25;4986675;28;20045;-86
2022/03/12 03:53:03;;;;;;;20.40;12.95;;;;;;;7.05;57.12;101212.63;4979062;28;20030;-85
2022/03/12 03:55:30;;;;;;;20.70;12.27;;;;;;;6.93;57.44;101205.91;4985360;28;20027;-86
2022/03/12 03:57:57;;;;;;;20.67;12.48;;;;;;;6.92;57.55;101221.84;4989924;28;20542;-86
2022/03/12 04:00:22;;;;;;;21.95;13.10;;;;;;;6.79;57.75;101208.13;4990598;28;20562;-86
2022/03/12 04:02:48;;;;;;;22.30;13.50;;;;;;;6.84;58.17;101227.38;4987687;28;20039;-86
2022/03/12 04:05:13;;;;;;;19.75;14.13;;;;;;;6.78;59.11;101214.31;4983685;28;20061;-86
2022/03/12 04:07:39;;;;;;;19.50;12.45;;;;;;;6.79;59.94;101229.28;4979545;28;20023;-86
2022/03/12 04:10:04;;;;;;;18.10;12.32;;;;;;;6.78;60.37;101238.13;4971212;28;20085;-86
2022/03/12 04:12:30;;;;;;;18.85;11.55;;;;;;;6.72;61.48;101220.66;4979040;28;20081;-86
2022/03/12 04:14:56;;;;;;;16.27;11.98;;;;;;;6.76;62.27;101234.66;4976049;28;20030;-86
2022/03/12 04:17:22;;;;;;;17.00;11.38;;;;;;;6.73;62.69;101234.75;4971024;28;20543;-86
2022/03/12 04:19:47;;;;;;;18.27;11.32;;;;;;;6.66;63.42;101230.56;4981115;28;20023;-86
2022/03/12 04:22:13;;;;;;;17.40;11.57;;;;;;;6.69;64.29;101233.13;4972328;28;20030;-85
2022/03/12 04:24:39;;;;;;;20.27;11.95;;;;;;;6.65;64.76;101234.13;4971034;28;20043;-86
2022/03/12 04:27:04;;;;;;;17.92;11.73;;;;;;;6.61;64.48;101237.75;4969811;28;20408;-86
2022/03/12 04:29:29;;;;;;;16.63;11.57;;;;;;;6.61;65.44;101243.91;4970294;28;20026;-86
2022/03/12 04:31:55;;;;;;;17.15;11.13;;;;;;;6.65;65.61;101247.34;4970258;28;20026;-85
2022/03/12 04:34:21;;;;;;;17.75;11.48;;;;;;;6.66;65.76;101242.00;4971917;28;20027;-86
2022/03/12 04:36:46;;;;;;;17.35;11.38;;;;;;;6.68;65.36;101249.88;4970728;28;20031;-86
2022/03/12 04:39:12;;;;;;;20.50;11.85;;;;;;;6.63;65.44;101242.06;4970184;28;20495;-85
2022/03/12 04:41:39;;;;;;;21.25;13.15;;;;;;;6.65;65.48;101244.69;4970372;28;20086;-86
2022/03/12 04:44:06;;;;;;;20.20;12.13;;;;;;;6.65;65.05;101247.34;4970746;28;20030;-85
2022/03/12 04:46:32;;;;;;;19.30;12.23;;;;;;;6.64;64.86;101249.09;4969711;28;20081;-86
2022/03/12 04:48:57;;;;;;;19.40;12.70;;;;;;;6.60;64.84;101249.22;4969583;28;20034;-85
2022/03/12 04:51:23;;;;;;;19.67;12.43;;;;;;;6.58;64.53;101243.13;4983964;28;20109;-85
2022/03/12 04:53:48;;;;;;;20.10;12.68;;;;;;;6.54;64.63;101238.81;4979969;28;20406;-87
2022/03/12 04:56:13;;;;;;;20.15;12.65;;;;;;;6.52;64.57;101254.75;4979330;28;20080;-86
2022/03/12 04:58:39;;;;;;;20.08;12.27;;;;;;;6.48;64.59;101255.75;4987203;28;20479;-86
2022/03/12 05:01:07;;;;;;;19.98;12.23;;;;;;;6.46;64.80;101261.06;4985885;28;20081;-86
2022/03/12 05:03:32;;;;;;;17.45;11.80;;;;;;;6.41;64.88;101262.09;4986691;28;20019;-87
2022/03/12 05:06:00;;;;;;;19.02;12.85;;;;;;;6.33;65.27;101256.16;4974403;28;20093;-86
2022/03/12 05:08:28;;;;;;;22.83;12.65;;;;;;;6.30;65.53;101262.38;4968731;28;20034;-87
2022/03/12 05:10:56;;;;;;;19.73;12.45;;;;;;;6.27;65.87;101254.53;4968268;28;20502;-87
2022/03/12 05:13:24;;;;;;;20.40;12.65;;;;;;;6.27;66.11;101265.13;4974089;28;20133;-87
2022/03/12 05:15:54;;;;;;;21.17;12.73;;;;;;;6.20;66.20;101258.25;4974965;28;20365;-86
2022/03/12 05:18:21;;;;;;;18.73;11.90;;;;;;;6.20;66.72;101274.97;4982075;28;20042;-87
2022/03/12 05:20:47;;;;;;;18.40;11.88;;;;;;;6.19;67.35;101275.88;4983531;28;20073;-87
2022/03/12 05:23:13;;;;;;;19.60;12.57;;;;;;;6.19;67.79;101265.31;4971818;28;20026;-87
2022/03/12 05:25:42;;;;;;;18.50;12.93;;;;;;;6.16;67.98;101269.81;4970195;28;20034;-87
2022/03/12 05:28:10;;;;;;;18.80;12.85;;;;;;;6.16;68.41;101275.09;4969093;28;20065;-87
2022/03/12 05:30:35;;;;;;;19.13;12.85;;;;;;;6.11;68.66;101269.94;4970480;28;20162;-87
2022/03/12 05:33:00;;;;;;;16.73;11.88;;;;;;;6.13;68.86;101285.72;4972707;28;20389;-86
2022/03/12 05:35:26;;;;;;;17.48;11.82;;;;;;;6.11;69.24;101295.50;4988518;28;20093;-86
2022/03/12 05:37:53;;;;;;;18.98;11.38;;;;;;;5.99;68.89;101288.72;4975468;28;20048;-86
2022/03/12 05:40:23;;;;;;;17.35;11.65;;;;;;;5.95;69.25;101295.00;4969246;28;20026;-87
2022/03/12 05:42:49;;;;;;;17.58;11.90;;;;;;;5.94;69.72;101298.56;4971285;28;20513;-85
2022/03/12 05:45:18;;;;;;;15.93;11.65;;;;;;;5.91;70.35;101298.59;4970077;28;20423;-87
2022/03/12 05:47:45;;;;;;;18.08;12.00;;;;;;;5.84;70.62;101287.28;4969551;28;20022;-87
2022/03/12 05:50:13;;;;;;;18.52;12.43;;;;;;;5.86;71.49;101303.13;4982929;28;20031;-87
2022/03/12 05:52:48;;;;;;;18.65;12.05;;;;;;;5.81;71.72;101294.41;4982969;28;20058;-87
2022/03/12 05:55:18;;;;;;;18.63;11.98;;;;;;;5.81;72.56;101297.06;4979802;28;20023;-86
2022/03/12 05:57:44;;;;;;;18.98;11.98;;;;;;;5.84;71.83;101313.69;4969138;28;20027;-86
2022/03/12 06:00:13;;;;;;;17.08;11.93;;;;;;;5.76;72.68;101307.72;4974526;28;20036;-86
2022/03/12 06:02:48;;;;;;;18.48;12.40;;;;;;;5.80;73.32;101311.19;4987505;28;20034;-87
2022/03/12 06:05:14;;;;;;;17.20;11.52;;;;;;;5.72;72.31;101306.06;4985713;28;20491;-86
2022/03/12 06:07:43;;;;;;;18.17;11.43;;;;;;;5.69;72.26;101307.03;4971340;28;20022;-86
2022/03/12 06:10:09;;;;;;;20.58;12.00;;;;;;;5.70;73.58;101313.16;4988623;28;20022;-86
2022/03/12 06:12:34;;;;;;;20.20;11.55;;;;;;;5.54;73.95;101286.25;4980773;28;20511;-87
2022/03/12 06:15:00;;;;;;;17.38;11.35;;;;;;;5.74;74.23;101322.75;4982221;28;20118;-87
2022/03/12 06:17:26;;;;;;;17.48;11.40;;;;;;;5.72;74.57;101317.50;4988251;28;20446;-86
2022/03/12 06:19:52;;;;;;;16.85;11.02;;;;;;;5.76;74.74;101323.56;4984365;28;20089;-86
2022/03/12 06:22:18;;;;;;;19.40;11.30;;;;;;;5.73;75.07;101315.75;4969466;28;20058;-86
2022/03/12 06:24:44;;;;;;;15.32;10.88;;;;;;;5.80;74.82;101324.38;4986254;28;20460;-85
2022/03/12 06:27:09;;;;;;;14.80;10.60;;;;;;;5.75;74.46;101322.72;4984306;28;20035;-85
2022/03/12 06:29:35;;;;;;;17.10;11.00;;;;;;;5.79;75.13;101323.50;4992844;28;20023;-86
2022/03/12 06:32:01;;;;;;;16.90;11.82;;;;;;;5.84;75.39;101329.56;4991494;28;20033;-84
2022/03/12 06:34:27;;;;;;;17.27;10.57;;;;;;;5.87;75.38;101329.50;4988334;28;20031;-85
2022/03/12 06:36:52;;;;;;;18.60;11.30;;;;;;;5.94;75.61;101333.75;5007475;28;20037;-82
2022/03/12 06:39:17;;;;;;;16.98;11.63;;;;;;;5.93;75.71;101333.78;4987986;28;20035;-85
2022/03/12 06:41:44;;;;;;;18.48;11.82;;;;;;;5.95;75.75;101335.50;5007704;28;20109;-87
2022/03/12 06:44:11;;;;;;;18.17;11.15;;;;;;;6.04;75.89;101342.34;4976396;28;20035;-84
2022/03/12 06:46:37;;;;;;;18.73;11.35;;;;;;;6.08;76.37;101345.78;4975659;28;20034;-86
2022/03/12 06:49:04;;;;;;;18.02;11.25;;;;;;;6.12;76.45;101352.72;4982039;28;20559;-87
2022/03/12 06:51:30;;;;;;;17.90;11.55;;;;;;;6.12;76.22;101344.78;4990970;28;20040;-86
2022/03/12 06:53:55;;;;;;;16.60;11.10;;;;;;;6.19;76.68;101352.53;4982611;28;20089;-86
2022/03/12 06:56:21;;;;;;;15.07;10.68;;;;;;;6.26;76.49;101357.66;4983559;28;20109;-85
2022/03/12 06:58:46;;;;;;;16.45;11.20;;;;;;;6.30;76.73;101341.69;4990430;28;20042;-86
2022/03/12 07:01:12;;;;;;;17.10;11.38;;;;;;;6.40;75.80;101350.28;4980386;28;20018;-86
2022/03/12 07:03:37;;;;;;;15.75;10.40;;;;;;;6.51;76.73;101353.47;4984873;28;20038;-86
2022/03/12 07:06:03;;;;;;;17.08;11.27;;;;;;;6.58;76.17;101354.22;4989751;28;20121;-85
2022/03/12 07:08:28;;;;;;;16.77;10.73;;;;;;;6.65;75.99;101350.50;4983844;28;20377;-86
2022/03/12 07:10:54;;;;;;;13.80;9.60;;;;;;;6.67;76.35;101341.59;4972367;28;20034;-86
2022/03/12 07:13:19;;;;;;;15.23;9.95;;;;;;;6.83;76.27;101355.28;4974094;28;20101;-86
2022/03/12 07:15:45;;;;;;;14.57;9.75;;;;;;;6.89;76.30;101360.41;4972541;28;20019;-87
2022/03/12 07:18:10;;;;;;;14.27;9.82;;;;;;;6.90;76.76;101343.63;4990150;28;20022;-86
2022/03/12 07:20:35;;;;;;;14.45;9.98;;;;;;;6.97;76.80;101344.31;4990194;28;20043;-91
2022/03/12 07:23:01;;;;;;;16.02;9.10;;;;;;;7.06;76.82;101365.22;4982344;28;20424;-88
2022/03/12 07:25:27;;;;;;;12.55;9.57;;;;;;;7.12;76.75;101366.84;4972516;28;20130;-88
2022/03/12 07:27:54;;;;;;;13.23;8.80;;;;;;;7.19;76.72;101368.38;4991761;28;20028;-87
2022/03/12 07:30:21;;;;;;;13.80;9.38;;;;;;;7.24;77.23;101372.66;4992225;28;20030;-88
2022/03/12 07:32:47;;;;;;;12.30;8.35;;;;;;;7.37;76.81;101378.47;4988141;28;20030;-88
2022/03/12 07:35:15;;;;;;;14.93;8.77;;;;;;;7.55;76.21;101377.06;4991415;28;20113;-89
2022/03/12 07:37:43;;;;;;;12.38;8.95;;;;;;;7.74;75.99;101391.50;4989317;28;20160;-89
2022/03/12 07:40:09;;;;;;;13.05;8.73;;;;;;;7.88;75.43;101383.13;4991021;28;20026;-88
2022/03/12 07:42:36;;;;;;;15.50;9.05;;;;;;;7.90;75.00;101383.94;4989504;28;20040;-89
2022/03/12 07:45:02;;;;;;;12.85;8.18;;;;;;;7.95;74.95;101386.44;4989620;28;20487;-88
2022/03/12 07:47:27;;;;;;;12.95;8.48;;;;;;;8.08;74.86;101392.22;4991880;28;20062;-88
2022/03/12 07:49:53;;;;;;;11.13;8.40;;;;;;;8.15;74.75;101402.59;4989070;28;20375;-88
2022/03/12 07:52:19;;;;;;;10.43;7.90;;;;;;;8.25;74.67;101395.22;4984721;28;20053;-89
2022/03/12 07:54:45;;;;;;;11.18;7.90;;;;;;;8.38;74.15;101387.75;4982752;28;20032;-90
2022/03/12 07:57:10;;;;;;;10.93;8.20;;;;;;;8.51;74.04;101402.34;4990552;28;20439;-89
2022/03/12 07:59:36;;;;;;;11.65;7.82;;;;;;;8.65;73.37;101405.41;4971956;28;20035;-89
2022/03/12 08:02:02;;;;;;;11.40;8.90;;;;;;;8.77;72.69;101414.72;4974464;28;20041;-90
2022/03/12 08:04:30;;;;;;;13.02;7.47;;;;;;;8.82;72.85;101407.50;4990211;28;20026;-89
2022/03/12 08:06:59;;;;;;;11.48;8.20;;;;;;;8.89;72.54;101402.81;4980586;28;20058;-89
2022/03/12 08:09:24;;;;;;;12.75;7.88;;;;;;;8.94;72.06;101411.47;4990202;28;20038;-89
2022/03/12 08:11:49;;;;;;;10.73;7.68;;;;;;;8.96;72.23;101407.00;4990343;28;20030;-90
2022/03/12 08:14:16;;;;;;;10.43;7.95;;;;;;;9.06;71.80;101411.03;4986059;28;20038;-88
2022/03/12 08:16:42;;;;;;;13.00;8.02;;;;;;;9.20;71.19;101402.59;4986012;28;20434;-90
2022/03/12 08:19:08;;;;;;;12.05;7.78;;;;;;;9.60;70.58;101427.69;4990011;28;20073;-89
2022/03/12 08:21:35;;;;;;;9.73;6.88;;;;;;;9.88;69.40;101414.22;4974211;28;20023;-91
2022/03/12 08:24:02;;;;;;;10.38;6.90;;;;;;;9.98;68.71;101413.78;4989800;28;20032;-90
2022/03/12 08:26:28;;;;;;;8.65;7.05;;;;;;;10.31;67.85;101423.19;4989120;28;20809;-88
2022/03/12 08:28:53;;;;;;;9.50;6.90;;;;;;;10.64;66.75;101419.13;4990546;28;20034;-90
2022/03/12 08:31:19;;;;;;;11.20;7.07;;;;;;;11.16;65.33;101429.34;4990293;28;20407;-89
2022/03/12 08:33:45;;;;;;;10.23;7.07;;;;;;;11.64;63.84;101423.59;4988560;28;20057;-89
2022/03/12 08:36:10;;;;;;;9.30;6.50;;;;;;;12.16;62.17;101425.66;4989974;28;20031;-90
2022/03/12 08:38:37;;;;;;;8.10;6.05;;;;;;;12.73;60.14;101434.41;4989273;28;20135;-89
2022/03/12 08:41:07;;;;;;;8.48;6.55;;;;;;;13.42;57.87;101431.75;4985835;28;20464;-90
2022/03/12 08:43:34;;;;;;;8.85;6.20;;;;;;;13.65;56.42;101416.25;4971979;28;20503;-90
2022/03/12 08:46:01;;;;;;;9.48;6.43;;;;;;;13.98;55.47;101444.78;4982767;28;20030;-89
2022/03/12 08:48:27;;;;;;;9.52;6.10;;;;;;;14.09;55.32;101440.56;4987568;28;20035;-90
2022/03/12 08:50:52;;;;;;;6.75;5.57;;;;;;;14.42;53.69;101440.47;4989577;28;20172;-90
2022/03/12 08:53:18;;;;;;;9.98;6.13;;;;;;;14.54;53.45;101438.03;4987173;28;20045;-91
2022/03/12 08:55:43;;;;;;;10.15;6.07;;;;;;;14.43;53.32;101450.22;4989831;28;20047;-91
2022/03/12 08:58:09;;;;;;;8.75;6.25;;;;;;;14.29;53.25;101433.19;4990582;28;20042;-92
2022/03/12 09:00:36;;;;;;;8.10;5.55;;;;;;;14.51;53.36;101441.78;4990676;28;20030;-91
2022/03/12 09:03:02;;;;;;;9.40;6.10;;;;;;;14.89;53.15;101450.25;4988479;28;20031;-91
2022/03/12 09:05:27;;;;;;;10.73;6.05;;;;;;;14.95;51.97;101449.00;4990268;28;20038;-92
2022/03/12 09:07:52;;;;;;;9.32;6.38;;;;;;;15.05;51.32;101450.19;4983855;28;20041;-92
2022/03/12 09:10:20;;;;;;;7.47;5.82;;;;;;;15.02;51.68;101457.56;4989765;28;20113;-93
2022/03/12 09:12:46;;;;;;;7.60;5.45;;;;;;;15.02;50.89;101447.69;4978769;28;20196;-93
2022/03/12 09:15:13;;;;;;;8.27;5.40;;;;;;;15.30;50.42;101464.78;4984439;28;20049;-92
2022/03/12 09:17:38;;;;;;;8.45;4.93;;;;;;;15.29;50.10;101461.25;4972322;28;20045;-93
2022/03/12 09:20:05;;;;;;;7.97;4.85;;;;;;;14.94;50.13;101455.31;4986948;28;20030;-92
2022/03/12 09:22:30;;;;;;;5.88;4.47;;;;;;;14.86;50.71;101449.56;4986114;28;20038;-91
2022/03/12 09:24:55;;;;;;;9.50;4.63;;;;;;;14.84;50.42;101462.16;4987776;28;20542;-91
2022/03/12 09:27:22;;;;;;;6.93;4.53;;;;;;;14.66;50.46;101467.66;4971468;28;20039;-92
2022/03/12 09:29:48;;;;;;;7.18;4.45;;;;;;;14.49;50.95;101450.84;4989541;28;20026;-93
2022/03/12 09:32:14;;;;;;;6.03;4.43;;;;;;;14.65;50.90;101459.72;4985073;28;20022;-93
2022/03/12 09:34:40;;;;;;;6.88;3.78;;;;;;;14.82;49.49;101462.28;4984693;28;20037;-93
2022/03/12 09:37:06;;;;;;;8.63;3.90;;;;;;;15.11;48.11;101454.31;4980790;28;20030;-94
2022/03/12 09:39:32;;;;;;;7.13;3.80;;;;;;;15.44;47.42;101457.63;4991440;28;20080;-93
2022/03/12 09:41:58;;;;;;;5.90;3.75;;;;;;;16.38;46.32;101454.41;4982873;28;20034;-91
2022/03/12 09:44:23;;;;;;;10.15;3.70;;;;;;;17.40;43.07;101439.41;4985741;28;20030;-93
2022/03/12 09:46:50;;;;;;;6.05;3.20;;;;;;;17.71;41.52;101444.47;4991068;28;20022;-92
2022/03/12 09:49:15;;;;;;;6.95;3.33;;;;;;;17.66;41.03;101450.16;4989409;28;20026;-93
2022/03/12 09:51:43;;;;;;;4.55;3.05;;;;;;;17.72;40.92;101454.25;4981023;28;20488;-92
2022/03/12 09:54:08;;;;;;;6.85;3.75;;;;;;;17.48;40.44;101448.78;4968660;28;20100;-92
2022/03/12 09:56:34;;;;;;;8.75;3.40;;;;;;;16.93;41.64;101459.69;4986419;28;20117;-93
2022/03/12 09:58:59;;;;;;;8.82;3.25;;;;;;;16.17;42.47;101456.66;4987821;28;20025;-92
2022/03/12 10:01:25;;;;;;;5.75;3.20;;;;;;;15.33;44.66;101462.78;4987070;28;20041;-93
2022/03/12 10:03:50;;;;;;;8.50;3.35;;;;;;;14.83;45.76;101464.00;4993714;28;20018;-93
2022/03/12 10:06:16;;;;;;;6.22;2.90;;;;;;;14.32;46.54;101457.97;4979257;28;20182;-94
2022/03/12 10:08:43;;;;;;;5.35;2.67;;;;;;;14.17;47.83;101466.88;4982091;28;20432;-94
2022/03/12 10:11:08;;;;;;;9.60;3.53;;;;;;;14.16;48.25;101473.19;4992013;28;20503;-94
2022/03/12 10:13:34;;;;;;;4.85;2.80;;;;;;;14.14;47.47;101445.66;4982303;28;20046;-96
2022/03/12 10:15:59;;;;;;;10.50;3.67;;;;;;;14.27;47.27;101473.44;4991822;28;20027;-93
2022/03/12 10:18:29;;;;;;;9.63;3.70;;;;;;;14.25;47.64;101458.41;4984404;28;20041;-95
2022/03/12 10:20:56;;;;;;;9.02;3.17;;;;;;;14.34;47.85;101477.53;4985679;28;20090;-93
2022/03/12 10:23:21;;;;;;;6.85;3.15;;;;;;;14.39;46.74;101459.38;4988053;28;20054;-94
2022/03/12 10:25:47;;;;;;;5.85;2.65;;;;;;;15.02;45.42;101453.06;4973052;28;20485;-93
2022/03/12 10:28:12;;;;;;;4.75;2.47;;;;;;;15.72;43.23;101461.34;4988455;28;20058;-93
2022/03/12 10:30:38;;;;;;;4.35;2.60;;;;;;;15.86;43.06;101447.03;4986177;28;20062;-93
2022/03/12 10:33:05;;;;;;;7.80;2.55;;;;;;;15.80;42.78;101466.19;4984654;28;20476;-93
2022/03/12 10:35:37;;;;;;;6.13;2.83;;;;;;;15.30;43.89;101463.00;4987077;28;20034;-92
2022/03/12 10:38:10;;;;;;;6.45;2.58;;;;;;;15.17;44.85;101470.91;4990477;28;20081;-92
2022/03/12 10:40:36;;;;;;;5.78;2.88;;;;;;;15.39;44.00;101470.47;4987779;28;20033;-92
2022/03/12 10:43:12;;;;;;;6.38;2.60;;;;;;;15.74;43.16;101478.19;4992018;28;20022;-94
2022/03/12 10:45:43;;;;;;;6.32;2.83;;;;;;;16.11;42.45;101462.44;4988526;28;20041;-92
2022/03/12 10:48:09;;;;;;;5.00;2.30;;;;;;;16.28;40.99;101464.91;4989957;28;20023;-92
2022/03/12 10:50:47;;;;;;;5.20;2.40;;;;;;;17.02;40.45;101474.34;4990882;28;20202;-92
2022/03/12 10:53:13;;;;;;;5.47;2.70;;;;;;;18.64;37.43;101475.38;4991268;28;20022;-92
2022/03/12 10:55:47;;;;;;;5.68;1.90;;;;;;;21.18;35.29;101468.56;4991231;28;20034;-90
2022/03/12 10:58:20;;;;;;;4.10;2.42;;;;;;;22.92;30.72;101462.13;4980426;28;20045;-93
2022/03/12 11:00:48;;;;;;;4.47;2.50;;;;;;;24.17;28.74;101450.06;4986640;28;20046;-90
2022/03/12 11:03:16;;;;;;;6.72;2.13;;;;;;;25.00;27.33;101441.75;4985061;28;20018;-90
2022/03/12 11:05:43;;;;;;;5.70;2.38;;;;;;;25.48;25.65;101456.78;4993874;28;20081;-90
2022/03/12 11:08:20;;;;;;;4.88;2.30;;;;;;;25.65;26.97;101463.19;4993243;28;20416;-90
2022/03/12 11:10:56;;;;;;;4.20;2.17;;;;;;;24.76;26.93;101473.19;4986279;28;20062;-90
2022/03/12 11:13:54;;;;;;;4.38;2.03;;;;;;;24.80;28.18;101471.00;4979978;28;20042;-91
2022/03/12 11:16:28;;;;;;;4.63;1.70;;;;;;;24.67;25.69;101454.22;4991808;28;20038;-91
2022/03/12 11:18:53;;;;;;;;;;;;;;;25.53;28.79;101473.50;4989815;28;20026;-90